createdAt,value
2023-05-29T00:02:02.954Z,5.22
2023-05-29T00:04:29.387Z,4.88
2023-05-29T00:06:56.451Z,4.47
2023-05-29T00:09:22.831Z,4.60
2023-05-29T00:11:52.955Z,4.55
2023-05-29T00:14:20.584Z,4.03
2023-05-29T00:16:51.180Z,3.83
2023-05-29T00:19:18.012Z,5.05
2023-05-29T00:21:44.643Z,4.50
2023-05-29T00:24:11.048Z,4.50
2023-05-29T00:26:37.510Z,4.28
2023-05-29T00:29:04.104Z,4.32
2023-05-29T00:31:33.061Z,4.75
2023-05-29T00:33:59.517Z,4.95
2023-05-29T00:36:26.751Z,4.60
2023-05-29T00:38:53.244Z,4.03
2023-05-29T00:41:20.457Z,4.53
2023-05-29T00:43:46.881Z,4.07
2023-05-29T00:46:15.264Z,4.93
2023-05-29T00:48:45.336Z,5.05
2023-05-29T00:51:13.052Z,4.80
2023-05-29T00:53:43.367Z,4.50
2023-05-29T00:56:11.000Z,5.05
2023-05-29T00:58:37.757Z,5.47
2023-05-29T01:01:04.395Z,5.35
2023-05-29T01:03:33.245Z,5.70
2023-05-29T01:06:00.065Z,6.93
2023-05-29T01:08:26.488Z,5.43
2023-05-29T01:11:00.195Z,5.18
2023-05-29T01:13:32.556Z,5.70
2023-05-29T01:15:59.025Z,6.40
2023-05-29T01:18:49.005Z,6.93
2023-05-29T01:21:51.127Z,5.82
2023-05-29T01:24:47.225Z,5.78
2023-05-29T01:27:18.473Z,6.47
2023-05-29T01:29:48.655Z,6.07
2023-05-29T01:32:15.367Z,5.07
2023-05-29T01:34:41.829Z,7.03
2023-05-29T01:37:10.844Z,5.70
2023-05-29T01:39:37.673Z,7.00
2023-05-29T01:42:05.862Z,6.55
2023-05-29T01:44:35.314Z,5.90
2023-05-29T01:47:03.589Z,5.57
2023-05-29T01:49:32.359Z,6.20
2023-05-29T01:52:01.315Z,5.55
2023-05-29T01:54:27.799Z,6.38
2023-05-29T01:56:54.248Z,4.88
2023-05-29T01:59:22.345Z,4.97
2023-05-29T02:01:49.093Z,4.85
2023-05-29T02:04:15.800Z,5.15
2023-05-29T02:06:42.280Z,4.80
2023-05-29T02:09:08.850Z,4.70
2023-05-29T02:11:35.255Z,4.97
2023-05-29T02:14:04.443Z,4.38
2023-05-29T02:16:34.334Z,4.75
2023-05-29T02:19:02.370Z,4.22
2023-05-29T02:21:28.856Z,4.85
2023-05-29T02:23:55.221Z,4.90
2023-05-29T02:26:21.720Z,5.65
2023-05-29T02:28:48.092Z,5.07
2023-05-29T02:31:14.481Z,4.93
2023-05-29T02:33:40.879Z,5.35
2023-05-29T02:36:11.031Z,4.43
2023-05-29T02:38:37.436Z,4.70
2023-05-29T02:41:03.843Z,4.00
2023-05-29T02:43:30.204Z,4.35
2023-05-29T02:45:56.682Z,4.07
2023-05-29T02:48:23.324Z,4.65
2023-05-29T02:50:49.686Z,4.18
2023-05-29T02:53:16.082Z,4.68
2023-05-29T02:55:43.723Z,4.43
2023-05-29T02:58:10.090Z,3.97
2023-05-29T03:00:36.434Z,4.35
2023-05-29T03:03:02.914Z,4.40
2023-05-29T03:05:29.377Z,4.40
2023-05-29T03:07:56.162Z,3.80
2023-05-29T03:10:23.067Z,3.78
2023-05-29T03:12:49.497Z,4.88
2023-05-29T03:15:16.516Z,5.28
2023-05-29T03:17:43.013Z,4.10
2023-05-29T03:20:14.489Z,3.95
2023-05-29T03:22:41.199Z,4.43
2023-05-29T03:25:08.963Z,4.57
2023-05-29T03:27:35.674Z,4.18
2023-05-29T03:30:10.628Z,4.90
2023-05-29T03:32:38.167Z,4.05
2023-05-29T03:35:05.338Z,4.70
2023-05-29T03:37:31.768Z,5.20
2023-05-29T03:39:58.483Z,5.25
2023-05-29T03:42:24.861Z,4.82
2023-05-29T03:44:52.521Z,4.57
2023-05-29T03:47:19.129Z,4.85
2023-05-29T03:49:45.753Z,5.53
2023-05-29T03:52:12.373Z,5.53
2023-05-29T03:54:39.040Z,5.40
2023-05-29T03:57:07.826Z,4.95
2023-05-29T03:59:34.360Z,5.38
2023-05-29T04:02:00.893Z,5.13
2023-05-29T04:04:27.981Z,5.50
2023-05-29T04:06:54.963Z,4.68
2023-05-29T04:09:21.355Z,4.85
2023-05-29T04:11:47.810Z,6.32
2023-05-29T04:14:14.193Z,5.35
2023-05-29T04:16:40.685Z,5.25
2023-05-29T04:19:07.324Z,5.90
2023-05-29T04:21:33.883Z,6.00
2023-05-29T04:24:01.711Z,5.57
2023-05-29T04:26:28.175Z,5.22
2023-05-29T04:28:58.140Z,5.43
2023-05-29T04:31:27.265Z,6.65
2023-05-29T04:33:55.905Z,6.00
2023-05-29T04:36:26.911Z,5.38
2023-05-29T04:39:04.709Z,6.63
2023-05-29T04:41:32.084Z,5.63
2023-05-29T04:44:00.268Z,6.45
2023-05-29T04:46:33.023Z,5.80
2023-05-29T04:48:59.758Z,5.20
2023-05-29T04:51:26.172Z,5.93
2023-05-29T04:53:52.720Z,5.40
2023-05-29T04:56:19.550Z,5.20
2023-05-29T04:58:47.989Z,5.35
2023-05-29T05:01:15.332Z,5.13
2023-05-29T05:03:42.829Z,5.45
2023-05-29T05:06:10.400Z,5.05
2023-05-29T05:08:37.619Z,5.93
2023-05-29T05:11:04.599Z,5.55
2023-05-29T05:13:31.090Z,5.28
2023-05-29T05:15:57.564Z,5.20
2023-05-29T05:18:24.025Z,4.57
2023-05-29T05:20:58.215Z,5.53
2023-05-29T05:23:24.801Z,5.10
2023-05-29T05:25:51.921Z,6.25
2023-05-29T05:28:18.354Z,5.28
2023-05-29T05:30:44.844Z,5.68
2023-05-29T05:33:11.407Z,5.57
2023-05-29T05:35:38.904Z,5.80
2023-05-29T05:38:05.581Z,5.50
2023-05-29T05:40:33.277Z,5.40
2023-05-29T05:43:08.199Z,4.90
2023-05-29T05:45:59.796Z,5.10
2023-05-29T05:48:27.571Z,5.75
2023-05-29T05:50:54.739Z,5.60
2023-05-29T05:53:22.375Z,5.45
2023-05-29T05:55:49.377Z,6.00
2023-05-29T05:58:16.262Z,5.30
2023-05-29T06:00:44.331Z,6.72
2023-05-29T06:03:11.284Z,5.82
2023-05-29T06:05:53.144Z,5.40
2023-05-29T06:08:19.945Z,6.43
2023-05-29T06:10:46.955Z,6.18
2023-05-29T06:13:14.335Z,5.25
2023-05-29T06:15:46.601Z,5.90
2023-05-29T06:18:13.828Z,6.32
2023-05-29T06:20:41.061Z,5.57
2023-05-29T06:23:08.761Z,5.57
2023-05-29T06:25:37.817Z,5.65
2023-05-29T06:28:06.964Z,5.63
2023-05-29T06:30:34.431Z,6.03
2023-05-29T06:33:06.741Z,5.53
2023-05-29T06:35:35.318Z,5.30
2023-05-29T06:38:01.778Z,6.38
2023-05-29T06:40:28.257Z,5.18
2023-05-29T06:42:55.340Z,5.40
2023-05-29T06:45:35.995Z,6.07
2023-05-29T06:48:02.622Z,6.00
2023-05-29T06:50:29.173Z,5.65
2023-05-29T06:53:00.360Z,6.45
2023-05-29T06:55:28.766Z,6.10
2023-05-29T06:57:57.812Z,7.15
2023-05-29T07:00:26.041Z,5.22
2023-05-29T07:03:20.009Z,6.13
2023-05-29T07:05:46.885Z,6.13
2023-05-29T07:08:13.280Z,6.55
2023-05-29T07:10:39.796Z,5.70
2023-05-29T07:13:07.313Z,5.63
2023-05-29T07:15:34.492Z,6.20
2023-05-29T07:18:01.500Z,5.43
2023-05-29T07:20:28.921Z,6.47
2023-05-29T07:22:59.133Z,6.20
2023-05-29T07:25:27.198Z,5.80
2023-05-29T07:27:53.600Z,6.53
2023-05-29T07:30:20.021Z,6.10
2023-05-29T07:32:46.861Z,5.82
2023-05-29T07:35:13.339Z,6.20
2023-05-29T07:37:39.814Z,5.72
2023-05-29T07:40:06.868Z,5.95
2023-05-29T07:43:09.493Z,5.20
2023-05-29T07:45:56.449Z,6.32
2023-05-29T07:48:23.746Z,5.30
2023-05-29T07:50:52.950Z,4.97
2023-05-29T07:53:19.478Z,5.13
2023-05-29T07:55:47.512Z,5.28
2023-05-29T07:58:14.258Z,5.35
2023-05-29T08:00:41.054Z,6.05
2023-05-29T08:03:09.525Z,5.45
2023-05-29T08:05:54.426Z,6.07
2023-05-29T08:08:21.671Z,5.15
2023-05-29T08:10:48.042Z,5.00
2023-05-29T08:13:14.451Z,5.50
2023-05-29T08:15:43.767Z,5.85
2023-05-29T08:18:10.194Z,5.43
2023-05-29T08:20:36.691Z,5.20
2023-05-29T08:23:03.214Z,5.60
2023-05-29T08:25:29.593Z,5.63
2023-05-29T08:27:56.097Z,5.13
2023-05-29T08:30:22.876Z,5.53
2023-05-29T08:32:51.216Z,5.30
2023-05-29T08:35:17.697Z,5.88
2023-05-29T08:37:44.453Z,4.90
2023-05-29T08:40:11.945Z,4.50
2023-05-29T08:42:46.790Z,5.43
2023-05-29T08:45:15.543Z,6.60
2023-05-29T08:47:44.368Z,4.85
2023-05-29T08:50:14.346Z,5.18
2023-05-29T08:52:41.669Z,4.93
2023-05-29T08:55:08.390Z,5.20
2023-05-29T08:57:35.413Z,4.90
2023-05-29T09:00:02.231Z,4.15
2023-05-29T09:02:28.681Z,5.65
2023-05-29T09:04:55.315Z,5.05
2023-05-29T09:07:22.389Z,4.85
2023-05-29T09:09:49.468Z,4.90
2023-05-29T09:12:17.966Z,4.70
2023-05-29T09:14:46.158Z,5.15
2023-05-29T09:17:13.623Z,5.03
2023-05-29T09:19:41.593Z,5.15
2023-05-29T09:22:11.031Z,5.30
2023-05-29T09:24:39.462Z,5.07
2023-05-29T09:27:06.339Z,4.45
2023-05-29T09:29:33.868Z,5.07
2023-05-29T09:32:04.201Z,4.88
2023-05-29T09:34:32.235Z,5.28
2023-05-29T09:37:09.450Z,4.97
2023-05-29T09:39:54.528Z,4.90
2023-05-29T09:42:22.750Z,5.18
2023-05-29T09:44:54.703Z,5.45
2023-05-29T09:47:22.701Z,4.47
2023-05-29T09:49:49.102Z,4.03
2023-05-29T09:52:16.710Z,4.35
2023-05-29T09:54:47.441Z,3.83
2023-05-29T09:57:15.805Z,4.22
2023-05-29T09:59:45.993Z,4.75
2023-05-29T10:02:14.802Z,5.22
2023-05-29T10:04:41.535Z,4.43
2023-05-29T10:07:17.305Z,4.07
2023-05-29T10:09:49.240Z,4.20
2023-05-29T10:12:21.260Z,4.75
2023-05-29T10:14:50.984Z,4.07
2023-05-29T10:17:23.873Z,4.40
2023-05-29T10:19:51.722Z,4.35
2023-05-29T10:22:21.625Z,4.65
2023-05-29T10:24:51.578Z,4.93
2023-05-29T10:27:19.007Z,5.47
2023-05-29T10:29:49.952Z,5.55
2023-05-29T10:35:03.426Z,4.53
2023-05-29T10:37:51.832Z,4.10
2023-05-29T10:40:24.443Z,4.68
2023-05-29T10:42:55.477Z,4.13
2023-05-29T10:45:33.690Z,4.07
2023-05-29T10:48:09.421Z,4.40
2023-05-29T10:50:36.714Z,4.35
2023-05-29T10:53:03.276Z,4.28
2023-05-29T10:55:37.091Z,3.97
2023-05-29T10:58:13.634Z,4.32
2023-05-29T11:00:43.715Z,3.97
2023-05-29T11:03:11.739Z,4.18
2023-05-29T11:06:20.849Z,4.05
2023-05-29T11:08:57.982Z,3.90
2023-05-29T11:11:32.399Z,3.58
2023-05-29T11:14:03.988Z,4.35
2023-05-29T11:16:33.500Z,3.85
2023-05-29T11:19:12.940Z,3.53
2023-05-29T11:21:55.980Z,3.75
2023-05-29T11:24:27.096Z,3.38
2023-05-29T11:26:55.452Z,3.85
2023-05-29T11:29:28.998Z,4.22
2023-05-29T11:32:08.965Z,3.90
2023-05-29T11:34:40.055Z,3.90
2023-05-29T11:37:06.970Z,4.20
2023-05-29T11:39:39.437Z,4.00
2023-05-29T11:42:07.503Z,3.95
2023-05-29T11:44:33.882Z,4.30
2023-05-29T11:47:04.944Z,3.78
2023-05-29T11:49:34.177Z,3.63
2023-05-29T11:52:18.205Z,3.80
2023-05-29T11:54:49.592Z,4.10
2023-05-29T11:57:20.724Z,4.05
2023-05-29T11:59:48.177Z,4.43
2023-05-29T12:02:15.202Z,4.55
2023-05-29T12:04:41.919Z,3.70
2023-05-29T12:07:19.134Z,3.75
2023-05-29T12:09:45.508Z,4.40
2023-05-29T12:12:11.890Z,4.18
2023-05-29T12:14:38.249Z,3.45
2023-05-29T12:17:06.040Z,3.70
2023-05-29T12:19:32.538Z,3.83
2023-05-29T12:21:59.046Z,3.92
2023-05-29T12:24:32.164Z,4.15
2023-05-29T12:27:08.450Z,6.28
2023-05-29T12:29:34.928Z,4.15
2023-05-29T12:32:01.588Z,3.70
2023-05-29T12:34:37.108Z,3.80
2023-05-29T12:37:14.252Z,3.95
2023-05-29T12:39:41.423Z,4.78
2023-05-29T12:42:08.491Z,3.90
2023-05-29T12:44:35.819Z,3.85
2023-05-29T12:47:02.287Z,3.88
2023-05-29T12:49:30.238Z,4.45
2023-05-29T12:52:06.449Z,4.13
2023-05-29T12:54:32.863Z,4.18
2023-05-29T12:57:01.985Z,4.20
2023-05-29T12:59:28.379Z,4.70
2023-05-29T13:01:54.799Z,4.35
2023-05-29T13:04:21.173Z,4.20
2023-05-29T13:06:47.580Z,4.38
2023-05-29T13:09:14.221Z,4.55
2023-05-29T13:11:40.561Z,4.03
2023-05-29T13:14:06.943Z,4.05
2023-05-29T13:16:33.696Z,4.07
2023-05-29T13:19:00.276Z,4.10
2023-05-29T13:21:26.683Z,3.83
2023-05-29T13:23:53.110Z,4.45
2023-05-29T13:26:19.487Z,4.13
2023-05-29T13:28:45.877Z,3.95
2023-05-29T13:31:12.265Z,3.75
2023-05-29T13:33:38.657Z,3.90
2023-05-29T13:36:06.211Z,4.70
2023-05-29T13:38:32.622Z,3.85
2023-05-29T13:40:59.025Z,4.72
2023-05-29T13:43:35.770Z,4.43
2023-05-29T13:48:36.072Z,4.18
2023-05-29T13:51:02.565Z,4.93
2023-05-29T13:53:28.929Z,4.75
2023-05-29T13:55:55.624Z,4.45
2023-05-29T13:58:22.208Z,3.78
2023-05-29T14:00:48.618Z,4.45
2023-05-29T14:03:15.081Z,4.38
2023-05-29T14:05:41.600Z,4.22
2023-05-29T14:08:08.029Z,4.72
2023-05-29T14:10:34.367Z,3.92
2023-05-29T14:13:00.781Z,4.10
2023-05-29T14:15:27.190Z,4.68
2023-05-29T14:17:53.608Z,3.85
2023-05-29T14:20:20.091Z,4.40
2023-05-29T14:22:46.480Z,4.47
2023-05-29T14:25:12.894Z,4.57
2023-05-29T14:27:39.265Z,4.35
2023-05-29T14:30:07.050Z,4.35
2023-05-29T14:32:33.500Z,4.43
2023-05-29T14:34:59.976Z,4.53
2023-05-29T14:37:26.522Z,4.40
2023-05-29T14:39:52.904Z,5.10
2023-05-29T14:42:19.342Z,4.43
2023-05-29T14:44:45.753Z,4.40
2023-05-29T14:47:12.163Z,4.85
2023-05-29T14:49:38.916Z,5.05
2023-05-29T14:52:05.750Z,4.45
2023-05-29T14:54:32.251Z,4.70
2023-05-29T14:56:58.665Z,4.50
2023-05-29T14:59:26.226Z,4.50
2023-05-29T15:01:54.376Z,4.75
2023-05-29T15:04:20.788Z,4.20
2023-05-29T15:06:55.227Z,4.63
2023-05-29T15:09:25.375Z,4.20
2023-05-29T15:11:51.713Z,4.75
2023-05-29T15:14:18.274Z,4.07
2023-05-29T15:16:45.754Z,4.55
2023-05-29T15:19:12.228Z,4.70
2023-05-29T15:21:38.657Z,4.35
2023-05-29T15:24:05.402Z,3.70
2023-05-29T15:26:31.810Z,4.80
2023-05-29T15:28:58.702Z,4.22
2023-05-29T15:31:26.203Z,4.07
2023-05-29T15:33:52.641Z,4.40
2023-05-29T15:36:21.115Z,4.47
2023-05-29T15:38:47.757Z,4.65
2023-05-29T15:41:14.192Z,3.90
2023-05-29T15:43:41.623Z,4.32
2023-05-29T15:46:09.217Z,4.20
2023-05-29T15:48:36.007Z,3.70
2023-05-29T15:51:02.418Z,4.90
2023-05-29T15:53:28.843Z,4.03
2023-05-29T15:55:55.687Z,4.10
2023-05-29T15:58:22.987Z,4.35
2023-05-29T16:00:49.797Z,4.53
2023-05-29T16:03:16.480Z,4.07
2023-05-29T16:05:42.804Z,4.65
2023-05-29T16:08:09.261Z,3.83
2023-05-29T16:10:36.437Z,4.20
2023-05-29T16:13:02.793Z,4.38
2023-05-29T16:15:29.272Z,4.60
2023-05-29T16:17:55.697Z,4.50
2023-05-29T16:20:23.380Z,3.70
2023-05-29T16:22:49.887Z,4.07
2023-05-29T16:25:16.666Z,4.10
2023-05-29T16:27:43.347Z,3.63
2023-05-29T16:30:10.491Z,3.70
2023-05-29T16:32:37.318Z,3.72
2023-05-29T16:35:04.744Z,3.42
2023-05-29T16:37:31.789Z,4.60
2023-05-29T16:39:58.362Z,3.83
2023-05-29T16:42:25.092Z,4.40
2023-05-29T16:44:53.408Z,4.90
2023-05-29T16:47:20.514Z,4.07
2023-05-29T16:49:46.954Z,4.28
2023-05-29T16:52:15.093Z,4.20
2023-05-29T16:54:41.764Z,3.78
2023-05-29T16:57:11.179Z,5.15
2023-05-29T16:59:38.456Z,4.05
2023-05-29T17:02:05.922Z,4.13
2023-05-29T17:04:34.478Z,4.57
2023-05-29T17:07:01.225Z,4.65
2023-05-29T17:09:28.194Z,4.68
2023-05-29T17:11:56.179Z,3.97
2023-05-29T17:14:23.613Z,4.25
2023-05-29T17:16:50.728Z,4.03
2023-05-29T17:19:17.206Z,4.15
2023-05-29T17:21:44.649Z,4.43
2023-05-29T17:24:11.239Z,4.07
2023-05-29T17:26:37.599Z,4.60
2023-05-29T17:29:03.942Z,4.10
2023-05-29T17:31:30.377Z,4.95
2023-05-29T17:33:57.919Z,4.28
2023-05-29T17:36:24.395Z,4.38
2023-05-29T17:38:52.884Z,4.22
2023-05-29T17:41:19.294Z,3.85
2023-05-29T17:43:45.707Z,3.65
2023-05-29T17:46:12.362Z,4.32
2023-05-29T17:48:38.915Z,4.25
2023-05-29T17:51:05.342Z,4.35
2023-05-29T17:53:31.775Z,4.47
2023-05-29T17:55:58.178Z,4.00
2023-05-29T17:58:24.699Z,4.57
2023-05-29T18:00:53.884Z,4.18
2023-05-29T18:03:20.329Z,3.95
2023-05-29T18:05:46.771Z,5.00
2023-05-29T18:08:13.124Z,4.15
2023-05-29T18:10:39.557Z,4.00
2023-05-29T18:13:06.001Z,4.47
2023-05-29T18:15:32.431Z,4.15
2023-05-29T18:17:58.844Z,4.85
2023-05-29T18:20:30.142Z,4.15
2023-05-29T18:22:59.496Z,3.65
2023-05-29T18:25:26.730Z,4.40
2023-05-29T18:27:53.253Z,5.10
2023-05-29T18:30:19.668Z,4.35
2023-05-29T18:32:46.182Z,4.60
2023-05-29T18:35:12.592Z,4.05
2023-05-29T18:37:40.048Z,5.07
2023-05-29T18:40:07.222Z,4.78
2023-05-29T18:42:33.621Z,5.03
2023-05-29T18:44:59.957Z,4.47
2023-05-29T18:47:26.366Z,4.45
2023-05-29T18:49:55.117Z,4.22
2023-05-29T18:52:23.343Z,4.45
2023-05-29T18:54:49.696Z,4.68
2023-05-29T18:57:16.106Z,4.72
2023-05-29T18:59:46.153Z,4.78
2023-05-29T19:02:12.687Z,4.53
2023-05-29T19:04:39.098Z,4.55
2023-05-29T19:07:06.282Z,5.72
2023-05-29T19:09:32.816Z,4.75
2023-05-29T19:11:59.182Z,4.93
2023-05-29T19:14:25.803Z,4.70
2023-05-29T19:16:52.200Z,4.95
2023-05-29T19:19:19.456Z,4.50
2023-05-29T19:21:46.384Z,4.47
2023-05-29T19:24:12.894Z,4.32
2023-05-29T19:26:42.638Z,4.75
2023-05-29T19:29:09.425Z,5.03
2023-05-29T19:31:36.259Z,5.38
2023-05-29T19:34:03.417Z,4.60
2023-05-29T19:36:29.939Z,4.75
2023-05-29T19:38:59.025Z,4.88
2023-05-29T19:41:26.048Z,3.97
2023-05-29T19:43:52.441Z,4.65
2023-05-29T19:46:19.024Z,4.07
2023-05-29T19:48:45.560Z,4.50
2023-05-29T19:51:12.626Z,4.85
2023-05-29T19:53:41.346Z,4.60
2023-05-29T19:56:08.372Z,4.60
2023-05-29T19:58:34.729Z,4.20
2023-05-29T20:01:01.586Z,4.43
2023-05-29T20:03:30.486Z,4.55
2023-05-29T20:05:57.294Z,4.53
2023-05-29T20:08:23.677Z,4.10
2023-05-29T20:10:58.093Z,4.43
2023-05-29T20:13:27.498Z,4.63
2023-05-29T20:15:54.060Z,4.55
2023-05-29T20:18:20.556Z,4.50
2023-05-29T20:20:47.949Z,4.68
2023-05-29T20:23:14.526Z,4.95
2023-05-29T20:25:41.162Z,4.35
2023-05-29T20:28:08.233Z,4.20
2023-05-29T20:30:34.750Z,4.60
2023-05-29T20:33:01.173Z,3.45
2023-05-29T20:35:27.584Z,4.33
2023-05-29T20:37:53.977Z,4.65
2023-05-29T20:40:21.422Z,4.38
2023-05-29T20:42:48.445Z,4.30
2023-05-29T20:45:15.614Z,3.92
2023-05-29T20:47:44.905Z,4.57
2023-05-29T20:50:15.088Z,4.72
2023-05-29T20:52:41.504Z,4.33
2023-05-29T20:55:08.314Z,4.70
2023-05-29T20:57:34.701Z,4.10
2023-05-29T21:00:01.476Z,4.03
2023-05-29T21:02:27.920Z,4.10
2023-05-29T21:04:54.326Z,4.53
2023-05-29T21:07:20.727Z,4.90
2023-05-29T21:09:47.091Z,5.38
2023-05-29T21:12:13.676Z,4.45
2023-05-29T21:14:40.134Z,4.00
2023-05-29T21:17:06.849Z,3.78
2023-05-29T21:19:33.218Z,4.38
2023-05-29T21:21:59.681Z,3.80
2023-05-29T21:24:26.651Z,4.05
2023-05-29T21:26:53.053Z,3.63
2023-05-29T21:29:19.416Z,3.85
2023-05-29T21:31:46.262Z,3.80
2023-05-29T21:34:12.682Z,3.90
2023-05-29T21:36:39.373Z,4.63
2023-05-29T21:39:06.342Z,4.10
2023-05-29T21:41:32.951Z,3.97
2023-05-29T21:43:59.292Z,4.40
2023-05-29T21:46:25.724Z,4.53
2023-05-29T21:48:52.106Z,4.13
2023-05-29T21:51:18.539Z,3.13
2023-05-29T21:53:44.878Z,3.83
2023-05-29T21:56:11.594Z,3.80
2023-05-29T21:58:37.934Z,4.63
2023-05-29T22:01:04.496Z,4.68
2023-05-29T22:03:31.208Z,4.13
2023-05-29T22:05:57.597Z,3.53
2023-05-29T22:08:24.269Z,4.45
2023-05-29T22:10:51.949Z,3.80
2023-05-29T22:13:20.570Z,4.15
2023-05-29T22:15:47.211Z,4.20
2023-05-29T22:18:13.565Z,4.22
2023-05-29T22:20:40.004Z,4.53
2023-05-29T22:23:16.875Z,3.63
2023-05-29T22:25:45.052Z,4.35
2023-05-29T22:28:12.977Z,4.10
2023-05-29T22:30:39.296Z,3.80
2023-05-29T22:33:05.687Z,3.65
2023-05-29T22:35:32.601Z,3.95
2023-05-29T22:37:59.523Z,3.72
2023-05-29T22:40:25.850Z,3.72
2023-05-29T22:42:52.197Z,4.00
2023-05-29T22:45:18.546Z,3.70
2023-05-29T22:47:45.553Z,3.80
2023-05-29T22:50:12.601Z,3.53
2023-05-29T22:52:39.683Z,4.20
2023-05-29T22:55:06.582Z,4.10
2023-05-29T22:57:33.699Z,4.13
2023-05-29T23:00:00.382Z,3.55
2023-05-29T23:02:28.420Z,3.97
2023-05-29T23:04:55.837Z,3.58
2023-05-29T23:07:22.817Z,3.40
2023-05-29T23:09:49.225Z,3.60
2023-05-29T23:12:15.580Z,3.42
2023-05-29T23:14:41.960Z,3.85
2023-05-29T23:17:08.429Z,3.78
2023-05-29T23:19:35.570Z,3.30
2023-05-29T23:22:02.899Z,3.30
2023-05-29T23:24:29.420Z,3.80
2023-05-29T23:26:56.114Z,3.50
2023-05-29T23:29:22.955Z,5.10
2023-05-29T23:31:49.608Z,3.65
2023-05-29T23:34:16.748Z,4.20
2023-05-29T23:36:46.653Z,3.58
2023-05-29T23:39:14.081Z,3.13
2023-05-29T23:41:41.908Z,3.30
2023-05-29T23:44:09.137Z,3.33
2023-05-29T23:46:36.476Z,3.45
2023-05-29T23:49:04.233Z,4.30
2023-05-29T23:51:31.315Z,3.50
2023-05-29T23:53:58.565Z,3.80
2023-05-29T23:56:26.299Z,3.60
2023-05-29T23:58:53.425Z,3.30
